sensor_id;sensor_type;location;lat;lon;timestamp;temperature;humidity
68098;DHT22;54886;47.036;15.466;2022-12-07T00:05:35;3.68;87.80
68098;DHT22;54886;47.036;15.466;2022-12-07T00:08:01;3.68;87.58
68098;DHT22;54886;47.036;15.466;2022-12-07T00:10:26;3.65;87.86
68098;DHT22;54886;47.036;15.466;2022-12-07T00:12:52;3.65;87.89
68098;DHT22;54886;47.036;15.466;2022-12-07T00:15:17;3.65;87.74
68098;DHT22;54886;47.036;15.466;2022-12-07T00:21:08;3.50;87.73
68098;DHT22;54886;47.036;15.466;2022-12-07T00:23:34;3.51;87.69
68098;DHT22;54886;47.036;15.466;2022-12-07T00:26:08;3.56;87.75
68098;DHT22;54886;47.036;15.466;2022-12-07T00:31:55;3.55;87.46
68098;DHT22;54886;47.036;15.466;2022-12-07T00:34:21;3.52;87.37
68098;DHT22;54886;47.036;15.466;2022-12-07T00:36:48;3.59;87.49
68098;DHT22;54886;47.036;15.466;2022-12-07T00:39:14;3.59;87.42
68098;DHT22;54886;47.036;15.466;2022-12-07T00:41:40;3.56;87.57
68098;DHT22;54886;47.036;15.466;2022-12-07T00:44:06;3.55;87.66
68098;DHT22;54886;47.036;15.466;2022-12-07T00:46:31;3.52;87.88
68098;DHT22;54886;47.036;15.466;2022-12-07T00:52:19;3.52;87.88
68098;DHT22;54886;47.036;15.466;2022-12-07T00:54:44;3.54;87.87
68098;DHT22;54886;47.036;15.466;2022-12-07T00:57:10;3.58;87.74
68098;DHT22;54886;47.036;15.466;2022-12-07T00:59:36;3.56;87.81
68098;DHT22;54886;47.036;15.466;2022-12-07T01:02:01;3.55;87.83
68098;DHT22;54886;47.036;15.466;2022-12-07T01:07:48;3.54;87.87
68098;DHT22;54886;47.036;15.466;2022-12-07T01:17:34;3.45;88.20
68098;DHT22;54886;47.036;15.466;2022-12-07T01:23:21;3.47;88.28
68098;DHT22;54886;47.036;15.466;2022-12-07T01:25:56;3.48;88.15
68098;DHT22;54886;47.036;15.466;2022-12-07T01:28:22;3.50;88.17
68098;DHT22;54886;47.036;15.466;2022-12-07T01:33:30;3.37;88.34
68098;DHT22;54886;47.036;15.466;2022-12-07T01:38:30;3.38;88.32
68098;DHT22;54886;47.036;15.466;2022-12-07T01:40:57;3.35;88.28
68098;DHT22;54886;47.036;15.466;2022-12-07T01:46:50;3.37;88.19
68098;DHT22;54886;47.036;15.466;2022-12-07T01:52:39;3.28;88.36
68098;DHT22;54886;47.036;15.466;2022-12-07T01:58:27;3.35;88.19
68098;DHT22;54886;47.036;15.466;2022-12-07T02:04:15;3.31;87.91
68098;DHT22;54886;47.036;15.466;2022-12-07T02:06:41;3.31;88.11
68098;DHT22;54886;47.036;15.466;2022-12-07T02:09:08;3.30;88.09
68098;DHT22;54886;47.036;15.466;2022-12-07T02:14:55;3.27;88.27
68098;DHT22;54886;47.036;15.466;2022-12-07T02:20:52;3.27;88.17
68098;DHT22;54886;47.036;15.466;2022-12-07T02:29:46;3.27;88.33
68098;DHT22;54886;47.036;15.466;2022-12-07T02:35:45;3.24;88.23
68098;DHT22;54886;47.036;15.466;2022-12-07T02:38:40;3.23;88.37
68098;DHT22;54886;47.036;15.466;2022-12-07T02:44:31;3.23;88.30
68098;DHT22;54886;47.036;15.466;2022-12-07T02:50:20;3.21;88.28
68098;DHT22;54886;47.036;15.466;2022-12-07T03:11:34;3.16;87.50
68098;DHT22;54886;47.036;15.466;2022-12-07T03:16:45;3.17;87.68
68098;DHT22;54886;47.036;15.466;2022-12-07T03:19:16;3.10;87.76
68098;DHT22;54886;47.036;15.466;2022-12-07T03:21:46;3.16;88.02
68098;DHT22;54886;47.036;15.466;2022-12-07T03:24:19;3.16;87.86
68098;DHT22;54886;47.036;15.466;2022-12-07T03:26:53;3.20;87.94
68098;DHT22;54886;47.036;15.466;2022-12-07T03:29:31;3.23;87.94
68098;DHT22;54886;47.036;15.466;2022-12-07T03:32:04;3.20;88.08
68098;DHT22;54886;47.036;15.466;2022-12-07T03:34:44;3.19;88.28
68098;DHT22;54886;47.036;15.466;2022-12-07T03:37:24;3.17;88.20
68098;DHT22;54886;47.036;15.466;2022-12-07T03:39:59;3.16;88.28
68098;DHT22;54886;47.036;15.466;2022-12-07T03:42:27;3.13;88.20
68098;DHT22;54886;47.036;15.466;2022-12-07T03:44:54;3.13;88.25
68098;DHT22;54886;47.036;15.466;2022-12-07T03:47:33;3.11;88.57
68098;DHT22;54886;47.036;15.466;2022-12-07T03:55:54;3.16;88.25
68098;DHT22;54886;47.036;15.466;2022-12-07T04:01:44;3.11;88.25
68098;DHT22;54886;47.036;15.466;2022-12-07T04:07:32;3.14;88.15
68098;DHT22;54886;47.036;15.466;2022-12-07T04:13:19;3.13;88.17
68098;DHT22;54886;47.036;15.466;2022-12-07T04:19:06;3.13;88.00
68098;DHT22;54886;47.036;15.466;2022-12-07T04:21:32;3.10;87.96
68098;DHT22;54886;47.036;15.466;2022-12-07T04:23:58;3.02;88.05
68098;DHT22;54886;47.036;15.466;2022-12-07T04:26:23;3.07;88.07
68098;DHT22;54886;47.036;15.466;2022-12-07T04:28:49;3.06;88.16
68098;DHT22;54886;47.036;15.466;2022-12-07T04:34:36;3.03;88.00
68098;DHT22;54886;47.036;15.466;2022-12-07T04:37:01;2.97;88.19
68098;DHT22;54886;47.036;15.466;2022-12-07T04:39:29;2.99;88.24
68098;DHT22;54886;47.036;15.466;2022-12-07T04:41:56;2.95;88.12
68098;DHT22;54886;47.036;15.466;2022-12-07T04:44:22;2.99;87.78
68098;DHT22;54886;47.036;15.466;2022-12-07T04:46:48;2.95;87.61
68098;DHT22;54886;47.036;15.466;2022-12-07T04:52:35;2.96;87.64
68098;DHT22;54886;47.036;15.466;2022-12-07T04:55:01;3.02;87.69
68098;DHT22;54886;47.036;15.466;2022-12-07T04:57:27;2.96;87.89
68098;DHT22;54886;47.036;15.466;2022-12-07T04:59:52;2.97;87.99
68098;DHT22;54886;47.036;15.466;2022-12-07T05:02:18;2.93;87.85
68098;DHT22;54886;47.036;15.466;2022-12-07T05:04:43;2.93;87.89
68098;DHT22;54886;47.036;15.466;2022-12-07T05:07:09;2.93;87.96
68098;DHT22;54886;47.036;15.466;2022-12-07T05:09:35;2.91;87.85
68098;DHT22;54886;47.036;15.466;2022-12-07T05:15:22;2.92;88.08
68098;DHT22;54886;47.036;15.466;2022-12-07T05:17:48;2.91;87.74
68098;DHT22;54886;47.036;15.466;2022-12-07T05:20:13;2.91;87.74
68098;DHT22;54886;47.036;15.466;2022-12-07T05:22:39;2.82;87.97
68098;DHT22;54886;47.036;15.466;2022-12-07T05:28:26;2.83;87.78
68098;DHT22;54886;47.036;15.466;2022-12-07T05:30:52;2.82;87.85
68098;DHT22;54886;47.036;15.466;2022-12-07T05:33:18;2.85;87.80
68098;DHT22;54886;47.036;15.466;2022-12-07T05:35:43;2.81;87.94
68098;DHT22;54886;47.036;15.466;2022-12-07T05:38:09;2.79;88.06
68098;DHT22;54886;47.036;15.466;2022-12-07T05:44:03;2.78;87.72
68098;DHT22;54886;47.036;15.466;2022-12-07T05:46:29;2.81;87.73
68098;DHT22;54886;47.036;15.466;2022-12-07T05:48:55;2.75;87.85
68098;DHT22;54886;47.036;15.466;2022-12-07T05:51:21;2.74;87.91
68098;DHT22;54886;47.036;15.466;2022-12-07T05:53:46;2.76;87.77
68098;DHT22;54886;47.036;15.466;2022-12-07T05:56:12;2.78;87.72
68098;DHT22;54886;47.036;15.466;2022-12-07T05:58:38;2.75;87.72
68098;DHT22;54886;47.036;15.466;2022-12-07T06:01:22;2.75;87.89
68098;DHT22;54886;47.036;15.466;2022-12-07T06:03:47;2.76;87.77
68098;DHT22;54886;47.036;15.466;2022-12-07T06:06:31;2.75;87.56
68098;DHT22;54886;47.036;15.466;2022-12-07T06:12:18;2.71;87.95
68098;DHT22;54886;47.036;15.466;2022-12-07T06:15:04;2.68;88.24
68098;DHT22;54886;47.036;15.466;2022-12-07T06:17:29;2.68;87.79
68098;DHT22;54886;47.036;15.466;2022-12-07T06:23:17;2.72;87.70
68098;DHT22;54886;47.036;15.466;2022-12-07T06:25:45;2.69;87.61
68098;DHT22;54886;47.036;15.466;2022-12-07T06:31:32;2.65;87.83
68098;DHT22;54886;47.036;15.466;2022-12-07T06:37:19;2.64;87.99
68098;DHT22;54886;47.036;15.466;2022-12-07T06:43:07;2.65;87.78
68098;DHT22;54886;47.036;15.466;2022-12-07T06:45:33;2.69;87.91
68098;DHT22;54886;47.036;15.466;2022-12-07T06:47:58;2.62;87.97
68098;DHT22;54886;47.036;15.466;2022-12-07T06:53:46;2.66;87.99
68098;DHT22;54886;47.036;15.466;2022-12-07T06:56:11;2.65;87.84
68098;DHT22;54886;47.036;15.466;2022-12-07T06:58:39;2.68;87.97
68098;DHT22;54886;47.036;15.466;2022-12-07T07:04:26;2.62;88.00
68098;DHT22;54886;47.036;15.466;2022-12-07T07:06:52;2.66;87.94
68098;DHT22;54886;47.036;15.466;2022-12-07T07:09:18;2.62;88.18
68098;DHT22;54886;47.036;15.466;2022-12-07T07:15:05;2.59;88.06
68098;DHT22;54886;47.036;15.466;2022-12-07T07:17:31;2.62;88.31
68098;DHT22;54886;47.036;15.466;2022-12-07T07:23:19;2.66;88.01
68098;DHT22;54886;47.036;15.466;2022-12-07T07:29:06;2.59;88.15
68098;DHT22;54886;47.036;15.466;2022-12-07T07:34:53;2.61;88.11
68098;DHT22;54886;47.036;15.466;2022-12-07T07:37:19;2.64;88.23
68098;DHT22;54886;47.036;15.466;2022-12-07T07:39:45;2.68;88.25
68098;DHT22;54886;47.036;15.466;2022-12-07T07:45:32;2.65;88.45
68098;DHT22;54886;47.036;15.466;2022-12-07T07:51:19;2.72;88.27
68098;DHT22;54886;47.036;15.466;2022-12-07T07:53:45;2.72;88.22
68098;DHT22;54886;47.036;15.466;2022-12-07T07:59:32;2.74;88.38
68098;DHT22;54886;47.036;15.466;2022-12-07T08:05:20;2.79;88.18
68098;DHT22;54886;47.036;15.466;2022-12-07T08:11:08;2.79;88.18
68098;DHT22;54886;47.036;15.466;2022-12-07T08:13:36;2.81;88.26
68098;DHT22;54886;47.036;15.466;2022-12-07T08:16:07;2.78;88.36
68098;DHT22;54886;47.036;15.466;2022-12-07T08:18:38;2.82;88.14
68098;DHT22;54886;47.036;15.466;2022-12-07T08:21:05;2.81;87.88
68098;DHT22;54886;47.036;15.466;2022-12-07T08:26:52;2.82;88.27
68098;DHT22;54886;47.036;15.466;2022-12-07T08:29:18;2.86;88.11
68098;DHT22;54886;47.036;15.466;2022-12-07T08:31:43;2.85;88.05
68098;DHT22;54886;47.036;15.466;2022-12-07T08:34:12;2.83;87.91
68098;DHT22;54886;47.036;15.466;2022-12-07T08:36:38;2.85;88.00
68098;DHT22;54886;47.036;15.466;2022-12-07T08:39:04;2.86;87.89
68098;DHT22;54886;47.036;15.466;2022-12-07T08:41:30;2.82;87.83
68098;DHT22;54886;47.036;15.466;2022-12-07T08:47:18;2.81;87.88
68098;DHT22;54886;47.036;15.466;2022-12-07T08:49:46;2.82;87.91
68098;DHT22;54886;47.036;15.466;2022-12-07T08:52:13;2.82;87.89
68098;DHT22;54886;47.036;15.466;2022-12-07T08:58:00;2.91;87.84
68098;DHT22;54886;47.036;15.466;2022-12-07T09:00:27;2.93;87.64
68098;DHT22;54886;47.036;15.466;2022-12-07T09:02:54;2.96;87.95
68098;DHT22;54886;47.036;15.466;2022-12-07T09:05:19;2.99;88.08
68098;DHT22;54886;47.036;15.466;2022-12-07T09:07:49;2.99;88.09
68098;DHT22;54886;47.036;15.466;2022-12-07T09:13:38;3.04;87.60
68098;DHT22;54886;47.036;15.466;2022-12-07T09:16:03;3.09;87.34
68098;DHT22;54886;47.036;15.466;2022-12-07T09:18:29;3.10;87.50
68098;DHT22;54886;47.036;15.466;2022-12-07T09:20:56;3.13;87.49
68098;DHT22;54886;47.036;15.466;2022-12-07T09:23:22;3.09;87.71
68098;DHT22;54886;47.036;15.466;2022-12-07T09:25:48;3.13;87.88
68098;DHT22;54886;47.036;15.466;2022-12-07T09:28:14;3.13;87.85
68098;DHT22;54886;47.036;15.466;2022-12-07T09:34:01;3.17;87.47
68098;DHT22;54886;47.036;15.466;2022-12-07T09:39:48;3.27;87.55
68098;DHT22;54886;47.036;15.466;2022-12-07T09:42:26;3.24;87.55
68098;DHT22;54886;47.036;15.466;2022-12-07T09:47:55;3.30;87.34
68098;DHT22;54886;47.036;15.466;2022-12-07T09:53:43;3.35;87.33
68098;DHT22;54886;47.036;15.466;2022-12-07T09:59:31;3.39;87.46
68098;DHT22;54886;47.036;15.466;2022-12-07T10:05:24;3.45;87.46
68098;DHT22;54886;47.036;15.466;2022-12-07T10:07:50;3.45;87.97
68098;DHT22;54886;47.036;15.466;2022-12-07T10:10:24;3.48;87.88
68098;DHT22;54886;47.036;15.466;2022-12-07T10:19:40;3.55;87.48
68098;DHT22;54886;47.036;15.466;2022-12-07T10:25:30;3.52;87.43
68098;DHT22;54886;47.036;15.466;2022-12-07T10:31:22;3.56;87.50
68098;DHT22;54886;47.036;15.466;2022-12-07T10:36:22;3.56;87.68
68098;DHT22;54886;47.036;15.466;2022-12-07T10:39:00;3.66;87.72
68098;DHT22;54886;47.036;15.466;2022-12-07T10:41:26;3.69;87.49
68098;DHT22;54886;47.036;15.466;2022-12-07T10:47:21;3.72;87.28
68098;DHT22;54886;47.036;15.466;2022-12-07T10:50:06;3.81;87.14
68098;DHT22;54886;47.036;15.466;2022-12-07T11:28:33;4.00;86.03
68098;DHT22;54886;47.036;15.466;2022-12-07T11:31:24;4.04;86.36
68098;DHT22;54886;47.036;15.466;2022-12-07T11:37:31;4.07;86.65
68098;DHT22;54886;47.036;15.466;2022-12-07T11:43:27;4.16;86.93
68098;DHT22;54886;47.036;15.466;2022-12-07T11:49:27;4.21;86.61
68098;DHT22;54886;47.036;15.466;2022-12-07T11:51:59;4.24;86.67
68098;DHT22;54886;47.036;15.466;2022-12-07T11:54:31;4.22;86.45
68098;DHT22;54886;47.036;15.466;2022-12-07T11:57:03;4.22;86.37
68098;DHT22;54886;47.036;15.466;2022-12-07T11:59:38;4.22;86.57
68098;DHT22;54886;47.036;15.466;2022-12-07T12:02:27;4.21;86.18
68098;DHT22;54886;47.036;15.466;2022-12-07T12:08:36;4.25;86.63
68098;DHT22;54886;47.036;15.466;2022-12-07T12:24:29;4.40;86.34
68098;DHT22;54886;47.036;15.466;2022-12-07T12:30:36;4.44;86.47
68098;DHT22;54886;47.036;15.466;2022-12-07T12:33:05;4.48;86.25
68098;DHT22;54886;47.036;15.466;2022-12-07T12:35:37;4.51;86.35
68098;DHT22;54886;47.036;15.466;2022-12-07T12:38:32;4.54;86.33
68098;DHT22;54886;47.036;15.466;2022-12-07T12:41:01;4.52;86.21
68098;DHT22;54886;47.036;15.466;2022-12-07T12:55:17;4.57;86.40
68098;DHT22;54886;47.036;15.466;2022-12-07T13:04:02;4.59;86.32
68098;DHT22;54886;47.036;15.466;2022-12-07T13:12:16;4.59;86.30
68098;DHT22;54886;47.036;15.466;2022-12-07T13:14:59;4.61;86.40
68098;DHT22;54886;47.036;15.466;2022-12-07T13:21:00;4.59;86.37
68098;DHT22;54886;47.036;15.466;2022-12-07T13:26:48;4.58;86.49
68098;DHT22;54886;47.036;15.466;2022-12-07T13:32:35;4.57;86.61
68098;DHT22;54886;47.036;15.466;2022-12-07T13:38:28;4.57;86.66
68098;DHT22;54886;47.036;15.466;2022-12-07T13:44:17;4.55;86.65
68098;DHT22;54886;47.036;15.466;2022-12-07T13:52:48;4.48;86.97
68098;DHT22;54886;47.036;15.466;2022-12-07T13:58:35;4.49;86.83
68098;DHT22;54886;47.036;15.466;2022-12-07T14:01:02;4.48;87.11
68098;DHT22;54886;47.036;15.466;2022-12-07T14:03:31;4.49;86.95
68098;DHT22;54886;47.036;15.466;2022-12-07T14:09:24;4.52;87.04
68098;DHT22;54886;47.036;15.466;2022-12-07T14:11:55;4.49;87.03
68098;DHT22;54886;47.036;15.466;2022-12-07T14:14:31;4.49;87.03
68098;DHT22;54886;47.036;15.466;2022-12-07T14:17:00;4.49;87.18
68098;DHT22;54886;47.036;15.466;2022-12-07T14:22:55;4.48;87.17
68098;DHT22;54886;47.036;15.466;2022-12-07T14:28:43;4.48;86.94
68098;DHT22;54886;47.036;15.466;2022-12-07T14:34:30;4.45;87.03
68098;DHT22;54886;47.036;15.466;2022-12-07T14:40:23;4.42;87.19
68098;DHT22;54886;47.036;15.466;2022-12-07T14:42:55;4.42;87.33
68098;DHT22;54886;47.036;15.466;2022-12-07T14:45:23;4.41;87.30
68098;DHT22;54886;47.036;15.466;2022-12-07T14:47:49;4.42;87.43
68098;DHT22;54886;47.036;15.466;2022-12-07T14:50:17;4.41;87.47
68098;DHT22;54886;47.036;15.466;2022-12-07T14:56:05;4.40;87.57
68098;DHT22;54886;47.036;15.466;2022-12-07T14:58:31;4.44;87.58
68098;DHT22;54886;47.036;15.466;2022-12-07T15:00:57;4.40;87.63
68098;DHT22;54886;47.036;15.466;2022-12-07T15:06:58;4.38;87.68
68098;DHT22;54886;47.036;15.466;2022-12-07T15:09:24;4.36;87.77
68098;DHT22;54886;47.036;15.466;2022-12-07T15:15:12;4.37;87.69
68098;DHT22;54886;47.036;15.466;2022-12-07T15:21:00;4.34;87.83
68098;DHT22;54886;47.036;15.466;2022-12-07T15:26:47;4.34;87.86
68098;DHT22;54886;47.036;15.466;2022-12-07T15:29:13;4.34;87.79
68098;DHT22;54886;47.036;15.466;2022-12-07T15:31:40;4.33;87.95
68098;DHT22;54886;47.036;15.466;2022-12-07T15:37:27;4.31;87.93
68098;DHT22;54886;47.036;15.466;2022-12-07T15:39:53;4.31;87.89
68098;DHT22;54886;47.036;15.466;2022-12-07T15:42:19;4.33;87.94
68098;DHT22;54886;47.036;15.466;2022-12-07T15:44:44;4.31;87.99
68098;DHT22;54886;47.036;15.466;2022-12-07T15:47:41;4.31;88.03
68098;DHT22;54886;47.036;15.466;2022-12-07T15:50:09;4.31;88.16
68098;DHT22;54886;47.036;15.466;2022-12-07T15:52:35;4.33;88.20
68098;DHT22;54886;47.036;15.466;2022-12-07T15:55:02;4.31;88.54
68098;DHT22;54886;47.036;15.466;2022-12-07T15:57:29;4.33;88.27
68098;DHT22;54886;47.036;15.466;2022-12-07T16:03:17;4.30;88.66
68098;DHT22;54886;47.036;15.466;2022-12-07T16:05:51;4.34;88.59
68098;DHT22;54886;47.036;15.466;2022-12-07T16:11:39;4.31;88.47
68098;DHT22;54886;47.036;15.466;2022-12-07T16:17:26;4.31;88.59
68098;DHT22;54886;47.036;15.466;2022-12-07T16:23:20;4.34;88.58
68098;DHT22;54886;47.036;15.466;2022-12-07T16:25:45;4.34;88.58
68098;DHT22;54886;47.036;15.466;2022-12-07T16:28:11;4.33;88.65
68098;DHT22;54886;47.036;15.466;2022-12-07T16:33:59;4.36;88.44
68098;DHT22;54886;47.036;15.466;2022-12-07T16:36:25;4.36;88.44
68098;DHT22;54886;47.036;15.466;2022-12-07T16:38:52;4.36;88.51
68098;DHT22;54886;47.036;15.466;2022-12-07T16:44:40;4.34;88.51
68098;DHT22;54886;47.036;15.466;2022-12-07T16:47:07;4.36;88.38
68098;DHT22;54886;47.036;15.466;2022-12-07T16:49:32;4.33;88.51
68098;DHT22;54886;47.036;15.466;2022-12-07T16:55:19;4.34;88.48
68098;DHT22;54886;47.036;15.466;2022-12-07T16:57:45;4.34;88.43
68098;DHT22;54886;47.036;15.466;2022-12-07T17:00:11;4.36;88.11
68098;DHT22;54886;47.036;15.466;2022-12-07T17:02:37;4.36;88.29
68098;DHT22;54886;47.036;15.466;2022-12-07T17:05:03;4.36;88.26
68098;DHT22;54886;47.036;15.466;2022-12-07T17:07:29;4.37;88.29
68098;DHT22;54886;47.036;15.466;2022-12-07T17:09:54;4.34;88.29
68098;DHT22;54886;47.036;15.466;2022-12-07T17:15:42;4.37;88.22
68098;DHT22;54886;47.036;15.466;2022-12-07T17:18:07;4.31;88.19
68098;DHT22;54886;47.036;15.466;2022-12-07T17:20:33;4.33;88.18
68098;DHT22;54886;47.036;15.466;2022-12-07T17:22:59;4.34;88.38
68098;DHT22;54886;47.036;15.466;2022-12-07T17:25:24;4.30;88.47
68098;DHT22;54886;47.036;15.466;2022-12-07T17:31:13;4.33;87.89
68098;DHT22;54886;47.036;15.466;2022-12-07T17:33:39;4.34;87.70
68098;DHT22;54886;47.036;15.466;2022-12-07T17:36:12;4.36;87.47
68098;DHT22;54886;47.036;15.466;2022-12-07T17:41:42;4.31;87.59
68098;DHT22;54886;47.036;15.466;2022-12-07T17:44:26;4.34;87.67
68098;DHT22;54886;47.036;15.466;2022-12-07T17:46:52;4.31;87.69
68098;DHT22;54886;47.036;15.466;2022-12-07T17:49:20;4.34;87.73
68098;DHT22;54886;47.036;15.466;2022-12-07T17:51:46;4.31;87.75
68098;DHT22;54886;47.036;15.466;2022-12-07T17:54:30;4.28;87.91
68098;DHT22;54886;47.036;15.466;2022-12-07T17:56:55;4.24;87.88
68098;DHT22;54886;47.036;15.466;2022-12-07T17:59:21;4.28;87.86
68098;DHT22;54886;47.036;15.466;2022-12-07T18:01:46;4.25;87.82
68098;DHT22;54886;47.036;15.466;2022-12-07T18:04:12;4.27;87.62
68098;DHT22;54886;47.036;15.466;2022-12-07T18:06:46;4.30;87.75
68098;DHT22;54886;47.036;15.466;2022-12-07T18:09:12;4.27;87.66
68098;DHT22;54886;47.036;15.466;2022-12-07T18:11:40;4.28;87.68
68098;DHT22;54886;47.036;15.466;2022-12-07T18:14:05;4.28;87.78
68098;DHT22;54886;47.036;15.466;2022-12-07T18:16:32;4.27;87.76
68098;DHT22;54886;47.036;15.466;2022-12-07T18:19:00;4.25;87.66
68098;DHT22;54886;47.036;15.466;2022-12-07T18:21:27;4.27;87.67
68098;DHT22;54886;47.036;15.466;2022-12-07T18:23:54;4.27;87.65
68098;DHT22;54886;47.036;15.466;2022-12-07T18:26:22;4.18;87.63
68098;DHT22;54886;47.036;15.466;2022-12-07T18:28:49;4.24;87.70
68098;DHT22;54886;47.036;15.466;2022-12-07T18:31:15;4.22;87.89
68098;DHT22;54886;47.036;15.466;2022-12-07T18:33:42;4.27;87.69
68098;DHT22;54886;47.036;15.466;2022-12-07T18:36:08;4.25;87.67
68098;DHT22;54886;47.036;15.466;2022-12-07T18:38:34;4.25;87.64
68098;DHT22;54886;47.036;15.466;2022-12-07T18:41:00;4.24;87.66
68098;DHT22;54886;47.036;15.466;2022-12-07T18:43:26;4.20;87.76
68098;DHT22;54886;47.036;15.466;2022-12-07T18:45:51;4.20;87.70
68098;DHT22;54886;47.036;15.466;2022-12-07T18:48:19;4.20;87.65
68098;DHT22;54886;47.036;15.466;2022-12-07T18:50:45;4.21;87.57
68098;DHT22;54886;47.036;15.466;2022-12-07T18:53:11;4.21;87.69
68098;DHT22;54886;47.036;15.466;2022-12-07T18:55:37;4.24;87.56
68098;DHT22;54886;47.036;15.466;2022-12-07T18:58:03;4.18;87.60
68098;DHT22;54886;47.036;15.466;2022-12-07T19:00:30;4.21;87.58
68098;DHT22;54886;47.036;15.466;2022-12-07T19:02:56;4.20;87.55
68098;DHT22;54886;47.036;15.466;2022-12-07T19:05:22;4.21;87.62
68098;DHT22;54886;47.036;15.466;2022-12-07T19:07:48;4.22;87.68
68098;DHT22;54886;47.036;15.466;2022-12-07T19:10:14;4.22;87.66
68098;DHT22;54886;47.036;15.466;2022-12-07T19:12:40;4.21;87.41
68098;DHT22;54886;47.036;15.466;2022-12-07T19:15:06;4.18;87.51
68098;DHT22;54886;47.036;15.466;2022-12-07T19:17:32;4.22;87.53
68098;DHT22;54886;47.036;15.466;2022-12-07T19:19:58;4.17;87.76
68098;DHT22;54886;47.036;15.466;2022-12-07T19:22:23;4.17;87.60
68098;DHT22;54886;47.036;15.466;2022-12-07T19:24:51;4.11;87.76
68098;DHT22;54886;47.036;15.466;2022-12-07T19:27:17;4.13;87.86
68098;DHT22;54886;47.036;15.466;2022-12-07T19:29:45;4.18;87.72
68098;DHT22;54886;47.036;15.466;2022-12-07T19:32:11;4.17;87.66
68098;DHT22;54886;47.036;15.466;2022-12-07T19:34:38;4.20;87.58
68098;DHT22;54886;47.036;15.466;2022-12-07T19:37:05;4.18;87.70
68098;DHT22;54886;47.036;15.466;2022-12-07T19:39:31;4.16;87.87
68098;DHT22;54886;47.036;15.466;2022-12-07T19:41:57;4.16;87.86
68098;DHT22;54886;47.036;15.466;2022-12-07T19:44:24;4.10;87.70
68098;DHT22;54886;47.036;15.466;2022-12-07T19:46:51;4.13;87.89
68098;DHT22;54886;47.036;15.466;2022-12-07T19:49:18;4.18;87.82
68098;DHT22;54886;47.036;15.466;2022-12-07T19:51:46;4.18;87.70
68098;DHT22;54886;47.036;15.466;2022-12-07T19:54:13;4.18;87.68
68098;DHT22;54886;47.036;15.466;2022-12-07T19:56:40;4.13;87.59
68098;DHT22;54886;47.036;15.466;2022-12-07T19:59:05;4.11;87.51
68098;DHT22;54886;47.036;15.466;2022-12-07T20:01:32;4.13;87.54
68098;DHT22;54886;47.036;15.466;2022-12-07T20:03:58;4.14;87.60
68098;DHT22;54886;47.036;15.466;2022-12-07T20:06:24;4.10;87.64
68098;DHT22;54886;47.036;15.466;2022-12-07T20:08:50;4.13;87.73
68098;DHT22;54886;47.036;15.466;2022-12-07T20:11:17;4.14;87.66
68098;DHT22;54886;47.036;15.466;2022-12-07T20:14:04;4.14;87.69
68098;DHT22;54886;47.036;15.466;2022-12-07T20:16:29;4.13;87.65
68098;DHT22;54886;47.036;15.466;2022-12-07T20:18:55;4.14;87.46
68098;DHT22;54886;47.036;15.466;2022-12-07T20:21:20;4.14;87.66
68098;DHT22;54886;47.036;15.466;2022-12-07T20:23:46;4.11;87.63
68098;DHT22;54886;47.036;15.466;2022-12-07T20:26:13;4.13;87.52
68098;DHT22;54886;47.036;15.466;2022-12-07T20:28:39;4.09;87.56
68098;DHT22;54886;47.036;15.466;2022-12-07T20:31:05;4.10;87.54
68098;DHT22;54886;47.036;15.466;2022-12-07T20:33:31;4.10;87.57
68098;DHT22;54886;47.036;15.466;2022-12-07T20:36:03;4.10;87.46
68098;DHT22;54886;47.036;15.466;2022-12-07T20:38:30;4.10;87.41
68098;DHT22;54886;47.036;15.466;2022-12-07T20:41:00;4.11;87.44
68098;DHT22;54886;47.036;15.466;2022-12-07T20:43:27;4.09;87.52
68098;DHT22;54886;47.036;15.466;2022-12-07T20:45:52;4.11;87.38
68098;DHT22;54886;47.036;15.466;2022-12-07T20:48:18;4.09;87.08
68098;DHT22;54886;47.036;15.466;2022-12-07T20:50:43;4.09;87.27
68098;DHT22;54886;47.036;15.466;2022-12-07T20:53:09;4.09;87.34
68098;DHT22;54886;47.036;15.466;2022-12-07T20:55:35;4.03;87.24
68098;DHT22;54886;47.036;15.466;2022-12-07T20:58:00;4.02;87.29
68098;DHT22;54886;47.036;15.466;2022-12-07T21:00:26;3.99;87.03
68098;DHT22;54886;47.036;15.466;2022-12-07T21:02:52;4.02;87.29
68098;DHT22;54886;47.036;15.466;2022-12-07T21:05:17;4.03;87.21
68098;DHT22;54886;47.036;15.466;2022-12-07T21:07:43;4.04;87.16
68098;DHT22;54886;47.036;15.466;2022-12-07T21:10:09;4.04;86.99
68098;DHT22;54886;47.036;15.466;2022-12-07T21:12:35;4.02;86.82
68098;DHT22;54886;47.036;15.466;2022-12-07T21:15:00;4.03;86.95
68098;DHT22;54886;47.036;15.466;2022-12-07T21:17:26;4.02;86.98
68098;DHT22;54886;47.036;15.466;2022-12-07T21:19:51;4.02;86.98
68098;DHT22;54886;47.036;15.466;2022-12-07T21:22:17;4.03;86.92
68098;DHT22;54886;47.036;15.466;2022-12-07T21:24:42;4.00;86.57
68098;DHT22;54886;47.036;15.466;2022-12-07T21:27:08;4.02;86.89
68098;DHT22;54886;47.036;15.466;2022-12-07T21:29:33;4.00;86.75
68098;DHT22;54886;47.036;15.466;2022-12-07T21:32:00;4.03;86.57
68098;DHT22;54886;47.036;15.466;2022-12-07T21:34:25;3.99;86.54
68098;DHT22;54886;47.036;15.466;2022-12-07T21:36:51;4.00;86.63
68098;DHT22;54886;47.036;15.466;2022-12-07T21:39:16;3.93;86.40
68098;DHT22;54886;47.036;15.466;2022-12-07T21:41:42;3.93;86.35
68098;DHT22;54886;47.036;15.466;2022-12-07T21:44:08;3.94;86.39
68098;DHT22;54886;47.036;15.466;2022-12-07T21:46:36;3.92;86.22
68098;DHT22;54886;47.036;15.466;2022-12-07T21:49:09;3.94;86.10
68098;DHT22;54886;47.036;15.466;2022-12-07T21:51:35;3.87;86.56
68098;DHT22;54886;47.036;15.466;2022-12-07T21:54:02;3.86;86.77
68098;DHT22;54886;47.036;15.466;2022-12-07T21:56:37;3.90;86.61
68098;DHT22;54886;47.036;15.466;2022-12-07T21:59:09;3.92;86.52
68098;DHT22;54886;47.036;15.466;2022-12-07T22:01:36;3.87;86.48
68098;DHT22;54886;47.036;15.466;2022-12-07T22:04:11;3.89;86.55
68098;DHT22;54886;47.036;15.466;2022-12-07T22:06:38;3.87;86.43
68098;DHT22;54886;47.036;15.466;2022-12-07T22:09:04;3.85;86.38
68098;DHT22;54886;47.036;15.466;2022-12-07T22:11:31;3.81;86.37
68098;DHT22;54886;47.036;15.466;2022-12-07T22:13:56;3.81;86.41
68098;DHT22;54886;47.036;15.466;2022-12-07T22:16:40;3.75;86.65
68098;DHT22;54886;47.036;15.466;2022-12-07T22:19:06;3.76;86.65
68098;DHT22;54886;47.036;15.466;2022-12-07T22:21:32;3.76;86.56
68098;DHT22;54886;47.036;15.466;2022-12-07T22:23:58;3.74;86.63
68098;DHT22;54886;47.036;15.466;2022-12-07T22:26:24;3.72;86.38
68098;DHT22;54886;47.036;15.466;2022-12-07T22:28:49;3.72;86.64
68098;DHT22;54886;47.036;15.466;2022-12-07T22:31:16;3.74;86.48
68098;DHT22;54886;47.036;15.466;2022-12-07T22:33:42;3.74;86.58
68098;DHT22;54886;47.036;15.466;2022-12-07T22:36:09;3.66;87.09